sensor_id;sensor_type;location;lat;lon;timestamp;pressure;altitude;pressure_sealevel;temperature;humidity
12868;BME280;33517;49.866;8.320;2022-11-15T00:00:55;100150.97;;;10.90;96.08
12868;BME280;33517;49.866;8.320;2022-11-15T00:03:50;100147.41;;;11.05;94.82
12868;BME280;33517;49.866;8.320;2022-11-15T00:06:42;100138.94;;;11.18;94.36
12868;BME280;33517;49.866;8.320;2022-11-15T00:09:34;100138.22;;;11.24;93.68
12868;BME280;33517;49.866;8.320;2022-11-15T00:12:26;100147.69;;;11.33;93.49
12868;BME280;33517;49.866;8.320;2022-11-15T00:15:20;100135.53;;;11.32;93.20
12868;BME280;33517;49.866;8.320;2022-11-15T00:18:12;100139.00;;;11.33;93.11
12868;BME280;33517;49.866;8.320;2022-11-15T00:21:06;100135.72;;;11.31;92.90
12868;BME280;33517;49.866;8.320;2022-11-15T00:23:58;100133.72;;;11.33;93.38
12868;BME280;33517;49.866;8.320;2022-11-15T00:26:50;100132.38;;;11.37;92.93
12868;BME280;33517;49.866;8.320;2022-11-15T00:29:42;100134.38;;;11.35;92.63
12868;BME280;33517;49.866;8.320;2022-11-15T00:32:35;100120.66;;;11.39;92.62
12868;BME280;33517;49.866;8.320;2022-11-15T00:35:27;100129.03;;;11.43;91.84
12868;BME280;33517;49.866;8.320;2022-11-15T00:38:19;100124.13;;;11.40;92.64
12868;BME280;33517;49.866;8.320;2022-11-15T00:41:11;100131.63;;;11.28;92.60
12868;BME280;33517;49.866;8.320;2022-11-15T00:44:03;100123.34;;;11.31;92.38
12868;BME280;33517;49.866;8.320;2022-11-15T00:46:55;100125.47;;;11.36;92.73
12868;BME280;33517;49.866;8.320;2022-11-15T00:49:48;100126.47;;;11.35;92.00
12868;BME280;33517;49.866;8.320;2022-11-15T00:52:40;100116.50;;;11.45;91.56
12868;BME280;33517;49.866;8.320;2022-11-15T00:55:32;100114.63;;;11.53;91.84
12868;BME280;33517;49.866;8.320;2022-11-15T00:58:23;100111.78;;;11.55;91.84
12868;BME280;33517;49.866;8.320;2022-11-15T01:01:15;100108.63;;;11.59;91.73
12868;BME280;33517;49.866;8.320;2022-11-15T01:04:07;100109.16;;;11.55;91.19
12868;BME280;33517;49.866;8.320;2022-11-15T01:07:00;100109.63;;;11.58;90.35
12868;BME280;33517;49.866;8.320;2022-11-15T01:09:52;100107.53;;;11.54;91.15
12868;BME280;33517;49.866;8.320;2022-11-15T01:12:44;100099.00;;;11.52;91.49
12868;BME280;33517;49.866;8.320;2022-11-15T01:15:39;100100.34;;;11.48;91.21
12868;BME280;33517;49.866;8.320;2022-11-15T01:18:31;100092.97;;;11.43;91.56
12868;BME280;33517;49.866;8.320;2022-11-15T01:21:23;100090.84;;;11.39;91.97
12868;BME280;33517;49.866;8.320;2022-11-15T01:24:16;100093.34;;;11.40;91.71
12868;BME280;33517;49.866;8.320;2022-11-15T01:27:08;100092.88;;;11.37;91.89
12868;BME280;33517;49.866;8.320;2022-11-15T01:30:00;100095.38;;;11.30;92.25
12868;BME280;33517;49.866;8.320;2022-11-15T01:32:52;100088.19;;;11.24;92.94
12868;BME280;33517;49.866;8.320;2022-11-15T01:35:44;100084.25;;;11.20;92.64
12868;BME280;33517;49.866;8.320;2022-11-15T01:38:36;100093.00;;;11.21;92.57
12868;BME280;33517;49.866;8.320;2022-11-15T01:41:31;100089.06;;;11.17;92.61
12868;BME280;33517;49.866;8.320;2022-11-15T01:44:37;100095.88;;;11.11;92.72
12868;BME280;33517;49.866;8.320;2022-11-15T01:47:31;100094.75;;;11.05;93.41
12868;BME280;33517;49.866;8.320;2022-11-15T01:50:26;100083.91;;;11.00;93.37
12868;BME280;33517;49.866;8.320;2022-11-15T01:53:21;100079.38;;;10.94;93.40
12868;BME280;33517;49.866;8.320;2022-11-15T01:56:16;100082.16;;;10.93;93.76
12868;BME280;33517;49.866;8.320;2022-11-15T01:59:11;100084.16;;;10.91;94.11
12868;BME280;33517;49.866;8.320;2022-11-15T02:02:03;100075.44;;;10.90;93.97
12868;BME280;33517;49.866;8.320;2022-11-15T02:04:55;100065.25;;;10.87;94.22
12868;BME280;33517;49.866;8.320;2022-11-15T02:07:48;100070.56;;;10.79;95.18
12868;BME280;33517;49.866;8.320;2022-11-15T02:10:40;100067.66;;;10.74;95.49
12868;BME280;33517;49.866;8.320;2022-11-15T02:13:31;100058.78;;;10.75;96.38
12868;BME280;33517;49.866;8.320;2022-11-15T02:16:29;100053.81;;;10.80;96.14
12868;BME280;33517;49.866;8.320;2022-11-15T02:19:40;100048.44;;;10.96;95.32
12868;BME280;33517;49.866;8.320;2022-11-15T02:22:46;100065.16;;;11.03;95.15
12868;BME280;33517;49.866;8.320;2022-11-15T02:25:55;100049.69;;;11.00;94.76
12868;BME280;33517;49.866;8.320;2022-11-15T02:28:55;100045.91;;;11.03;94.56
12868;BME280;33517;49.866;8.320;2022-11-15T02:31:56;100048.28;;;11.12;94.89
12868;BME280;33517;49.866;8.320;2022-11-15T02:34:56;100046.09;;;11.16;94.94
12868;BME280;33517;49.866;8.320;2022-11-15T02:37:56;100037.81;;;11.27;93.70
12868;BME280;33517;49.866;8.320;2022-11-15T02:40:52;100032.81;;;11.32;93.98
12868;BME280;33517;49.866;8.320;2022-11-15T02:43:47;100028.63;;;11.38;92.50
12868;BME280;33517;49.866;8.320;2022-11-15T02:46:51;100020.53;;;11.39;92.75
12868;BME280;33517;49.866;8.320;2022-11-15T02:50:08;100027.91;;;11.44;91.14
12868;BME280;33517;49.866;8.320;2022-11-15T02:53:00;100032.03;;;11.46;90.72
12868;BME280;33517;49.866;8.320;2022-11-15T02:55:53;100027.41;;;11.48;90.70
12868;BME280;33517;49.866;8.320;2022-11-15T02:59:02;100027.81;;;11.37;91.08
12868;BME280;33517;49.866;8.320;2022-11-15T03:02:08;100024.00;;;11.25;90.42
12868;BME280;33517;49.866;8.320;2022-11-15T03:05:12;100023.44;;;11.30;91.28
12868;BME280;33517;49.866;8.320;2022-11-15T03:08:10;100024.72;;;11.34;90.64
12868;BME280;33517;49.866;8.320;2022-11-15T03:11:07;100027.00;;;11.37;91.08
12868;BME280;33517;49.866;8.320;2022-11-15T03:14:02;100021.81;;;11.43;89.67
12868;BME280;33517;49.866;8.320;2022-11-15T03:17:03;100028.19;;;11.49;89.78
12868;BME280;33517;49.866;8.320;2022-11-15T03:19:59;100025.56;;;11.49;89.82
12868;BME280;33517;49.866;8.320;2022-11-15T03:22:55;100018.75;;;11.54;89.34
12868;BME280;33517;49.866;8.320;2022-11-15T03:25:50;100028.22;;;11.63;89.48
12868;BME280;33517;49.866;8.320;2022-11-15T03:28:46;100024.13;;;11.61;88.70
12868;BME280;33517;49.866;8.320;2022-11-15T03:31:42;100018.81;;;11.69;88.61
12868;BME280;33517;49.866;8.320;2022-11-15T03:34:41;100022.53;;;11.74;88.73
12868;BME280;33517;49.866;8.320;2022-11-15T03:37:40;100021.25;;;11.70;88.68
12868;BME280;33517;49.866;8.320;2022-11-15T03:40:39;100017.69;;;11.63;88.00
12868;BME280;33517;49.866;8.320;2022-11-15T03:43:36;100025.16;;;11.74;87.78
12868;BME280;33517;49.866;8.320;2022-11-15T03:46:34;100025.16;;;11.74;89.05
12868;BME280;33517;49.866;8.320;2022-11-15T03:49:33;100028.97;;;11.72;88.32
12868;BME280;33517;49.866;8.320;2022-11-15T03:52:25;100021.06;;;11.72;88.61
12868;BME280;33517;49.866;8.320;2022-11-15T03:55:19;100015.59;;;11.73;88.15
12868;BME280;33517;49.866;8.320;2022-11-15T03:58:13;100022.72;;;11.73;88.06
12868;BME280;33517;49.866;8.320;2022-11-15T04:01:04;100020.06;;;11.73;87.17
12868;BME280;33517;49.866;8.320;2022-11-15T04:03:56;100018.72;;;11.77;87.76
12868;BME280;33517;49.866;8.320;2022-11-15T04:06:48;100024.59;;;11.79;87.60
12868;BME280;33517;49.866;8.320;2022-11-15T04:09:40;100013.78;;;11.74;87.50
12868;BME280;33517;49.866;8.320;2022-11-15T04:12:46;100014.34;;;11.84;86.94
12868;BME280;33517;49.866;8.320;2022-11-15T04:15:40;100010.41;;;11.94;87.18
12868;BME280;33517;49.866;8.320;2022-11-15T04:18:31;100012.59;;;11.91;86.24
12868;BME280;33517;49.866;8.320;2022-11-15T04:21:23;100011.22;;;11.95;87.28
12868;BME280;33517;49.866;8.320;2022-11-15T04:24:33;100011.69;;;11.98;87.43
12868;BME280;33517;49.866;8.320;2022-11-15T04:27:24;100013.69;;;11.96;87.38
12868;BME280;33517;49.866;8.320;2022-11-15T04:30:16;100012.88;;;11.96;86.64
12868;BME280;33517;49.866;8.320;2022-11-15T04:33:10;100011.88;;;11.97;86.38
12868;BME280;33517;49.866;8.320;2022-11-15T04:36:02;100018.25;;;11.88;87.50
12868;BME280;33517;49.866;8.320;2022-11-15T04:39:11;100010.06;;;11.83;88.43
12868;BME280;33517;49.866;8.320;2022-11-15T04:42:03;99999.78;;;11.88;88.20
12868;BME280;33517;49.866;8.320;2022-11-15T04:44:55;100004.06;;;11.89;87.32
12868;BME280;33517;49.866;8.320;2022-11-15T04:47:47;100005.59;;;11.83;87.63
12868;BME280;33517;49.866;8.320;2022-11-15T04:50:40;100001.78;;;11.86;88.57
12868;BME280;33517;49.866;8.320;2022-11-15T04:53:32;100004.16;;;11.81;87.70
12868;BME280;33517;49.866;8.320;2022-11-15T04:56:24;99995.06;;;11.83;88.43
12868;BME280;33517;49.866;8.320;2022-11-15T04:59:16;99990.81;;;11.82;88.31
12868;BME280;33517;49.866;8.320;2022-11-15T05:02:07;99985.34;;;11.84;89.21
12868;BME280;33517;49.866;8.320;2022-11-15T05:04:59;99977.25;;;11.85;89.04
12868;BME280;33517;49.866;8.320;2022-11-15T05:07:51;99977.50;;;11.90;89.35
12868;BME280;33517;49.866;8.320;2022-11-15T05:10:43;99975.16;;;11.81;88.12
12868;BME280;33517;49.866;8.320;2022-11-15T05:13:35;99973.16;;;11.83;89.24
12868;BME280;33517;49.866;8.320;2022-11-15T05:16:27;99966.50;;;11.87;88.18
12868;BME280;33517;49.866;8.320;2022-11-15T05:19:19;99973.53;;;11.80;88.15
12868;BME280;33517;49.866;8.320;2022-11-15T05:22:11;99972.97;;;11.84;88.73
12868;BME280;33517;49.866;8.320;2022-11-15T05:25:05;99966.88;;;11.84;88.08
12868;BME280;33517;49.866;8.320;2022-11-15T05:27:57;99969.53;;;11.84;88.22
12868;BME280;33517;49.866;8.320;2022-11-15T05:30:49;99968.44;;;11.78;87.79
12868;BME280;33517;49.866;8.320;2022-11-15T05:33:41;99966.78;;;11.77;88.25
12868;BME280;33517;49.866;8.320;2022-11-15T05:36:36;99965.75;;;11.64;88.64
12868;BME280;33517;49.866;8.320;2022-11-15T05:39:28;99966.22;;;11.53;88.71
12868;BME280;33517;49.866;8.320;2022-11-15T05:42:21;99965.59;;;11.51;89.04
12868;BME280;33517;49.866;8.320;2022-11-15T05:45:14;99959.78;;;11.41;89.52
12868;BME280;33517;49.866;8.320;2022-11-15T05:48:07;99952.69;;;11.41;89.39
12868;BME280;33517;49.866;8.320;2022-11-15T05:51:01;99955.13;;;11.43;89.40
12868;BME280;33517;49.866;8.320;2022-11-15T05:53:55;99962.78;;;11.38;89.88
12868;BME280;33517;49.866;8.320;2022-11-15T05:56:48;99956.88;;;11.50;89.25
12868;BME280;33517;49.866;8.320;2022-11-15T05:59:42;99966.69;;;11.56;89.63
12868;BME280;33517;49.866;8.320;2022-11-15T06:02:34;99975.50;;;11.63;89.46
12868;BME280;33517;49.866;8.320;2022-11-15T06:05:26;99971.72;;;11.66;89.90
12868;BME280;33517;49.866;8.320;2022-11-15T06:08:18;99978.69;;;11.59;90.29
12868;BME280;33517;49.866;8.320;2022-11-15T06:11:10;99961.78;;;11.53;90.54
12868;BME280;33517;49.866;8.320;2022-11-15T06:14:02;99954.72;;;11.54;91.58
12868;BME280;33517;49.866;8.320;2022-11-15T06:16:55;99955.97;;;11.58;91.93
12868;BME280;33517;49.866;8.320;2022-11-15T06:19:47;99961.00;;;11.67;91.46
12868;BME280;33517;49.866;8.320;2022-11-15T06:22:39;99968.78;;;11.61;91.59
12868;BME280;33517;49.866;8.320;2022-11-15T06:25:31;99972.25;;;11.61;91.88
12868;BME280;33517;49.866;8.320;2022-11-15T06:28:23;99972.06;;;11.63;92.32
12868;BME280;33517;49.866;8.320;2022-11-15T06:31:15;99975.31;;;11.65;91.65
12868;BME280;33517;49.866;8.320;2022-11-15T06:34:08;99977.25;;;11.71;91.40
12868;BME280;33517;49.866;8.320;2022-11-15T06:37:00;99980.06;;;11.69;91.15
12868;BME280;33517;49.866;8.320;2022-11-15T06:39:52;99969.75;;;11.60;91.91
12868;BME280;33517;49.866;8.320;2022-11-15T06:42:44;99965.88;;;11.56;92.59
12868;BME280;33517;49.866;8.320;2022-11-15T06:45:35;99969.59;;;11.61;92.08
12868;BME280;33517;49.866;8.320;2022-11-15T06:48:28;99970.06;;;11.65;91.87
12868;BME280;33517;49.866;8.320;2022-11-15T06:51:21;99975.44;;;11.71;91.63
12868;BME280;33517;49.866;8.320;2022-11-15T06:54:44;99977.34;;;11.77;91.53
12868;BME280;33517;49.866;8.320;2022-11-15T06:57:36;99975.72;;;11.76;91.38
12868;BME280;33517;49.866;8.320;2022-11-15T07:00:28;99977.06;;;11.72;91.51
12868;BME280;33517;49.866;8.320;2022-11-15T07:03:20;99977.72;;;11.74;92.26
12868;BME280;33517;49.866;8.320;2022-11-15T07:06:11;99970.88;;;11.80;91.50
12868;BME280;33517;49.866;8.320;2022-11-15T07:09:05;99972.06;;;11.92;90.25
12868;BME280;33517;49.866;8.320;2022-11-15T07:11:57;99972.69;;;11.94;90.17
12868;BME280;33517;49.866;8.320;2022-11-15T07:14:48;99965.47;;;12.02;91.11
12868;BME280;33517;49.866;8.320;2022-11-15T07:17:40;99963.28;;;12.06;89.68
12868;BME280;33517;49.866;8.320;2022-11-15T07:20:32;99971.63;;;12.10;89.86
12868;BME280;33517;49.866;8.320;2022-11-15T07:23:24;99963.91;;;12.08;90.61
12868;BME280;33517;49.866;8.320;2022-11-15T07:26:17;99963.19;;;12.14;89.98
12868;BME280;33517;49.866;8.320;2022-11-15T07:29:09;99964.06;;;12.21;90.55
12868;BME280;33517;49.866;8.320;2022-11-15T07:32:01;99959.63;;;12.22;89.81
12868;BME280;33517;49.866;8.320;2022-11-15T07:34:53;99969.81;;;12.25;90.14
12868;BME280;33517;49.866;8.320;2022-11-15T07:37:53;99970.06;;;12.30;89.73
12868;BME280;33517;49.866;8.320;2022-11-15T07:40:46;99969.75;;;12.39;88.58
12868;BME280;33517;49.866;8.320;2022-11-15T07:43:39;99963.53;;;12.47;88.42
12868;BME280;33517;49.866;8.320;2022-11-15T07:46:31;99961.97;;;12.52;89.42
12868;BME280;33517;49.866;8.320;2022-11-15T07:49:23;99972.31;;;12.54;89.07
12868;BME280;33517;49.866;8.320;2022-11-15T07:52:15;99968.13;;;12.59;88.98
12868;BME280;33517;49.866;8.320;2022-11-15T07:55:07;99964.69;;;12.59;88.23
12868;BME280;33517;49.866;8.320;2022-11-15T07:58:00;99976.03;;;12.59;88.20
12868;BME280;33517;49.866;8.320;2022-11-15T08:00:53;99983.16;;;12.59;89.28
12868;BME280;33517;49.866;8.320;2022-11-15T08:03:45;99982.88;;;12.54;88.82
12868;BME280;33517;49.866;8.320;2022-11-15T08:06:37;99983.91;;;12.53;89.69
12868;BME280;33517;49.866;8.320;2022-11-15T08:09:29;99972.16;;;12.55;90.09
12868;BME280;33517;49.866;8.320;2022-11-15T08:12:21;99973.66;;;12.64;90.08
12868;BME280;33517;49.866;8.320;2022-11-15T08:15:13;99976.75;;;12.68;89.09
12868;BME280;33517;49.866;8.320;2022-11-15T08:18:10;99973.72;;;12.71;89.78
12868;BME280;33517;49.866;8.320;2022-11-15T08:21:03;99978.00;;;12.72;89.13
12868;BME280;33517;49.866;8.320;2022-11-15T08:23:55;99978.81;;;12.72;89.30
12868;BME280;33517;49.866;8.320;2022-11-15T08:26:47;99977.38;;;12.70;90.17
12868;BME280;33517;49.866;8.320;2022-11-15T08:29:39;99970.00;;;12.65;89.86
12868;BME280;33517;49.866;8.320;2022-11-15T08:32:31;99967.69;;;12.56;90.46
12868;BME280;33517;49.866;8.320;2022-11-15T08:35:25;99966.88;;;12.76;90.44
12868;BME280;33517;49.866;8.320;2022-11-15T08:38:17;99972.44;;;12.88;88.93
12868;BME280;33517;49.866;8.320;2022-11-15T08:41:12;99967.75;;;13.05;89.54
12868;BME280;33517;49.866;8.320;2022-11-15T08:44:05;99956.22;;;13.12;87.98
12868;BME280;33517;49.866;8.320;2022-11-15T08:46:57;99972.25;;;13.11;87.91
12868;BME280;33517;49.866;8.320;2022-11-15T08:49:49;99961.69;;;12.89;87.70
12868;BME280;33517;49.866;8.320;2022-11-15T08:52:42;99956.09;;;12.99;87.84
12868;BME280;33517;49.866;8.320;2022-11-15T08:55:36;99959.50;;;12.93;87.83
12868;BME280;33517;49.866;8.320;2022-11-15T08:58:28;99962.13;;;12.93;87.14
12868;BME280;33517;49.866;8.320;2022-11-15T09:01:20;99961.31;;;12.92;87.49
12868;BME280;33517;49.866;8.320;2022-11-15T09:04:12;99963.09;;;13.07;86.76
12868;BME280;33517;49.866;8.320;2022-11-15T09:07:04;99953.06;;;13.02;85.85
12868;BME280;33517;49.866;8.320;2022-11-15T09:09:57;99950.41;;;13.02;86.99
12868;BME280;33517;49.866;8.320;2022-11-15T09:12:49;99950.44;;;13.30;85.99
12868;BME280;33517;49.866;8.320;2022-11-15T09:15:41;99947.59;;;13.65;85.47
12868;BME280;33517;49.866;8.320;2022-11-15T09:18:34;99951.31;;;13.77;84.81
12868;BME280;33517;49.866;8.320;2022-11-15T09:21:26;99943.81;;;13.81;84.62
12868;BME280;33517;49.866;8.320;2022-11-15T09:24:17;99953.03;;;13.98;84.81
12868;BME280;33517;49.866;8.320;2022-11-15T09:27:11;99949.72;;;13.89;83.33
12868;BME280;33517;49.866;8.320;2022-11-15T09:30:04;99954.28;;;13.61;83.42
12868;BME280;33517;49.866;8.320;2022-11-15T09:32:56;99946.00;;;13.71;85.14
12868;BME280;33517;49.866;8.320;2022-11-15T09:35:48;99935.25;;;13.79;84.44
12868;BME280;33517;49.866;8.320;2022-11-15T09:38:40;99936.09;;;13.86;84.80
12868;BME280;33517;49.866;8.320;2022-11-15T09:41:41;99937.31;;;13.83;85.02
12868;BME280;33517;49.866;8.320;2022-11-15T09:44:47;99937.63;;;13.67;85.76
12868;BME280;33517;49.866;8.320;2022-11-15T09:51:14;99935.66;;;13.82;87.22
12868;BME280;33517;49.866;8.320;2022-11-15T09:54:12;99933.84;;;13.83;87.23
12868;BME280;33517;49.866;8.320;2022-11-15T09:57:11;99936.56;;;13.55;87.93
12868;BME280;33517;49.866;8.320;2022-11-15T10:00:09;99931.69;;;13.18;89.75
12868;BME280;33517;49.866;8.320;2022-11-15T10:03:12;99934.03;;;13.07;91.05
12868;BME280;33517;49.866;8.320;2022-11-15T10:06:05;99930.88;;;12.96;92.07
12868;BME280;33517;49.866;8.320;2022-11-15T10:09:00;99931.06;;;12.95;92.39
12868;BME280;33517;49.866;8.320;2022-11-15T10:11:53;99934.97;;;12.99;92.87
12868;BME280;33517;49.866;8.320;2022-11-15T10:14:46;99932.72;;;12.75;92.78
12868;BME280;33517;49.866;8.320;2022-11-15T10:18:03;99920.13;;;12.49;94.93
12868;BME280;33517;49.866;8.320;2022-11-15T10:20:59;99920.88;;;12.43;94.92
12868;BME280;33517;49.866;8.320;2022-11-15T10:23:53;99921.50;;;12.24;95.28
12868;BME280;33517;49.866;8.320;2022-11-15T10:26:46;99916.41;;;12.23;95.61
12868;BME280;33517;49.866;8.320;2022-11-15T10:29:42;99918.78;;;12.39;96.33
12868;BME280;33517;49.866;8.320;2022-11-15T10:32:36;99911.31;;;12.42;95.88
12868;BME280;33517;49.866;8.320;2022-11-15T10:35:30;99907.28;;;12.46;94.98
12868;BME280;33517;49.866;8.320;2022-11-15T10:38:22;99907.59;;;12.37;94.25
12868;BME280;33517;49.866;8.320;2022-11-15T10:41:15;99907.25;;;12.40;92.97
12868;BME280;33517;49.866;8.320;2022-11-15T10:44:12;99895.25;;;12.37;93.49
12868;BME280;33517;49.866;8.320;2022-11-15T10:47:26;99894.72;;;12.48;93.68
12868;BME280;33517;49.866;8.320;2022-11-15T10:50:29;99892.09;;;12.48;92.80
12868;BME280;33517;49.866;8.320;2022-11-15T10:53:25;99878.03;;;12.69;92.69
12868;BME280;33517;49.866;8.320;2022-11-15T10:56:21;99865.44;;;12.64;91.13
12868;BME280;33517;49.866;8.320;2022-11-15T10:59:16;99854.41;;;12.82;90.58
12868;BME280;33517;49.866;8.320;2022-11-15T11:02:30;99846.34;;;12.96;90.08
12868;BME280;33517;49.866;8.320;2022-11-15T11:05:26;99851.00;;;12.94;88.88
12868;BME280;33517;49.866;8.320;2022-11-15T11:08:23;99843.63;;;13.11;89.24
12868;BME280;33517;49.866;8.320;2022-11-15T11:11:15;99829.09;;;13.35;88.39
12868;BME280;33517;49.866;8.320;2022-11-15T11:14:11;99822.09;;;13.55;87.33
12868;BME280;33517;49.866;8.320;2022-11-15T11:17:05;99826.00;;;13.72;86.01
12868;BME280;33517;49.866;8.320;2022-11-15T11:20:07;99822.78;;;13.96;86.57
12868;BME280;33517;49.866;8.320;2022-11-15T11:23:11;99825.84;;;13.93;85.37
12868;BME280;33517;49.866;8.320;2022-11-15T11:26:18;99819.50;;;13.81;85.58
12868;BME280;33517;49.866;8.320;2022-11-15T11:29:28;99822.16;;;13.81;85.37
12868;BME280;33517;49.866;8.320;2022-11-15T11:32:32;99822.75;;;13.89;85.16
12868;BME280;33517;49.866;8.320;2022-11-15T11:35:30;99820.56;;;14.06;84.72
12868;BME280;33517;49.866;8.320;2022-11-15T11:38:39;99806.34;;;14.53;84.78
12868;BME280;33517;49.866;8.320;2022-11-15T11:41:46;99810.44;;;14.42;81.91
12868;BME280;33517;49.866;8.320;2022-11-15T11:44:47;99813.25;;;14.08;83.96
12868;BME280;33517;49.866;8.320;2022-11-15T11:47:46;99804.22;;;13.76;84.47
12868;BME280;33517;49.866;8.320;2022-11-15T11:50:40;99793.22;;;13.66;86.74
12868;BME280;33517;49.866;8.320;2022-11-15T11:53:39;99794.28;;;13.85;86.28
12868;BME280;33517;49.866;8.320;2022-11-15T11:56:34;99784.94;;;13.76;85.49
12868;BME280;33517;49.866;8.320;2022-11-15T11:59:36;99784.28;;;13.67;86.42
12868;BME280;33517;49.866;8.320;2022-11-15T12:02:33;99785.50;;;13.58;86.16
12868;BME280;33517;49.866;8.320;2022-11-15T12:05:30;99771.47;;;13.71;86.62
12868;BME280;33517;49.866;8.320;2022-11-15T12:08:31;99772.34;;;14.17;85.95
12868;BME280;33517;49.866;8.320;2022-11-15T12:11:29;99760.53;;;14.39;84.81
12868;BME280;33517;49.866;8.320;2022-11-15T12:14:35;99766.22;;;14.62;83.78
12868;BME280;33517;49.866;8.320;2022-11-15T12:17:31;99753.03;;;14.36;83.52
12868;BME280;33517;49.866;8.320;2022-11-15T12:20:32;99753.00;;;14.10;84.44
12868;BME280;33517;49.866;8.320;2022-11-15T12:23:28;99753.81;;;13.91;85.31
12868;BME280;33517;49.866;8.320;2022-11-15T12:26:24;99755.25;;;14.00;85.77
12868;BME280;33517;49.866;8.320;2022-11-15T12:29:22;99750.75;;;14.07;85.90
12868;BME280;33517;49.866;8.320;2022-11-15T12:32:26;99738.75;;;14.05;86.35
12868;BME280;33517;49.866;8.320;2022-11-15T12:35:25;99734.25;;;14.18;86.30
12868;BME280;33517;49.866;8.320;2022-11-15T12:38:55;99717.59;;;14.11;85.78
12868;BME280;33517;49.866;8.320;2022-11-15T12:45:25;99713.53;;;14.02;86.49
12868;BME280;33517;49.866;8.320;2022-11-15T12:52:04;99724.09;;;13.96;89.00
12868;BME280;33517;49.866;8.320;2022-11-15T12:55:32;99715.78;;;13.99;89.10
12868;BME280;33517;49.866;8.320;2022-11-15T12:58:39;99707.81;;;14.12;88.36
12868;BME280;33517;49.866;8.320;2022-11-15T13:02:11;99703.34;;;14.12;87.63
12868;BME280;33517;49.866;8.320;2022-11-15T13:08:50;99678.91;;;14.23;86.90
12868;BME280;33517;49.866;8.320;2022-11-15T13:11:53;99680.13;;;14.21;86.52
12868;BME280;33517;49.866;8.320;2022-11-15T13:14:47;99684.19;;;14.23;87.17
12868;BME280;33517;49.866;8.320;2022-11-15T13:17:42;99674.47;;;13.91;87.64
12868;BME280;33517;49.866;8.320;2022-11-15T13:20:34;99676.50;;;13.82;88.31
12868;BME280;33517;49.866;8.320;2022-11-15T13:23:26;99669.78;;;13.93;89.27
12868;BME280;33517;49.866;8.320;2022-11-15T13:26:18;99670.38;;;14.08;88.50
12868;BME280;33517;49.866;8.320;2022-11-15T13:29:17;99663.06;;;14.04;87.72
12868;BME280;33517;49.866;8.320;2022-11-15T13:32:11;99653.06;;;14.12;88.26
12868;BME280;33517;49.866;8.320;2022-11-15T13:35:07;99652.03;;;14.07;88.25
12868;BME280;33517;49.866;8.320;2022-11-15T13:38:03;99658.78;;;13.96;88.34
12868;BME280;33517;49.866;8.320;2022-11-15T13:40:56;99650.44;;;13.99;89.29
12868;BME280;33517;49.866;8.320;2022-11-15T13:43:50;99651.66;;;13.97;89.03
12868;BME280;33517;49.866;8.320;2022-11-15T13:46:43;99643.09;;;14.14;88.97
12868;BME280;33517;49.866;8.320;2022-11-15T13:49:35;99640.84;;;14.11;88.30
12868;BME280;33517;49.866;8.320;2022-11-15T13:52:31;99628.84;;;14.09;88.48
12868;BME280;33517;49.866;8.320;2022-11-15T13:55:25;99627.66;;;14.05;89.09
12868;BME280;33517;49.866;8.320;2022-11-15T13:58:17;99617.06;;;14.05;88.79
12868;BME280;33517;49.866;8.320;2022-11-15T14:01:15;99609.88;;;14.18;88.49
12868;BME280;33517;49.866;8.320;2022-11-15T14:04:13;99605.81;;;14.22;88.12
12868;BME280;33517;49.866;8.320;2022-11-15T14:07:16;99602.38;;;14.28;88.16
12868;BME280;33517;49.866;8.320;2022-11-15T14:10:24;99600.72;;;14.21;87.19
12868;BME280;33517;49.866;8.320;2022-11-15T14:13:27;99590.19;;;14.14;86.94
12868;BME280;33517;49.866;8.320;2022-11-15T14:16:21;99598.72;;;14.10;87.08
12868;BME280;33517;49.866;8.320;2022-11-15T14:19:34;99590.66;;;13.85;87.26
12868;BME280;33517;49.866;8.320;2022-11-15T14:22:28;99585.97;;;13.80;87.91
12868;BME280;33517;49.866;8.320;2022-11-15T14:25:21;99582.31;;;13.75;88.36
12868;BME280;33517;49.866;8.320;2022-11-15T14:28:16;99573.97;;;13.78;88.53
12868;BME280;33517;49.866;8.320;2022-11-15T14:31:19;99566.63;;;13.80;88.10
12868;BME280;33517;49.866;8.320;2022-11-15T14:34:12;99563.19;;;13.79;87.78
12868;BME280;33517;49.866;8.320;2022-11-15T14:37:10;99549.38;;;13.77;88.08
12868;BME280;33517;49.866;8.320;2022-11-15T14:40:12;99547.50;;;13.91;88.37
12868;BME280;33517;49.866;8.320;2022-11-15T14:43:08;99543.66;;;13.87;88.26
12868;BME280;33517;49.866;8.320;2022-11-15T14:46:01;99547.09;;;13.87;88.17
12868;BME280;33517;49.866;8.320;2022-11-15T14:48:52;99534.28;;;13.91;87.96
12868;BME280;33517;49.866;8.320;2022-11-15T14:51:44;99536.72;;;13.86;87.66
12868;BME280;33517;49.866;8.320;2022-11-15T14:54:37;99529.22;;;13.83;88.13
12868;BME280;33517;49.866;8.320;2022-11-15T14:57:30;99523.88;;;13.89;87.56
12868;BME280;33517;49.866;8.320;2022-11-15T15:00:22;99513.91;;;13.98;87.69
12868;BME280;33517;49.866;8.320;2022-11-15T15:03:14;99512.09;;;13.99;87.46
12868;BME280;33517;49.866;8.320;2022-11-15T15:06:06;99505.97;;;13.98;87.64
12868;BME280;33517;49.866;8.320;2022-11-15T15:08:59;99505.81;;;13.93;87.76
12868;BME280;33517;49.866;8.320;2022-11-15T15:11:52;99503.34;;;13.92;87.29
12868;BME280;33517;49.866;8.320;2022-11-15T15:14:46;99502.34;;;13.86;87.57
12868;BME280;33517;49.866;8.320;2022-11-15T15:17:38;99495.44;;;13.78;87.39
12868;BME280;33517;49.866;8.320;2022-11-15T15:20:30;99493.63;;;13.79;88.44
12868;BME280;33517;49.866;8.320;2022-11-15T15:23:23;99487.94;;;13.75;88.30
12868;BME280;33517;49.866;8.320;2022-11-15T15:26:17;99494.06;;;13.76;88.31
12868;BME280;33517;49.866;8.320;2022-11-15T15:29:10;99488.56;;;13.71;88.48
12868;BME280;33517;49.866;8.320;2022-11-15T15:32:02;99491.41;;;13.69;88.18
12868;BME280;33517;49.866;8.320;2022-11-15T15:34:54;99488.16;;;13.67;88.31
12868;BME280;33517;49.866;8.320;2022-11-15T15:37:46;99472.91;;;13.63;88.62
12868;BME280;33517;49.866;8.320;2022-11-15T15:40:38;99477.41;;;13.56;88.84